Soleil Weather Down

Nearby METAR Reports

 

KCNI - Canton/Cherokee, Georgia, USA
Distance from station: ENE 6mi, 10km
Updated: Sat, 24-Feb-2024 7:15am EST
Overcast
Overcast
 Wind from calm
Wind: Calm
Temperature: 37°F , 3°C
Dew Point: 28°F , -2°C
Humidity: 70%
Barometer: 29.84 inHg , 1010.5 hPa
Clouds: Overcast
Visibility: 10 miles , 16 km
Cloud details: Overcast 9000 ft
2024/02/24 12:15 KCNI 241215Z AUTO 00000KT 10SM OVC090 03/M02 A2984 RMK AO2 T00331017
KRYY - Marietta Mccolum, Georgia, USA
Distance from station: SSW 18mi, 29km
Updated: Sat, 24-Feb-2024 6:50am EST
Mostly cloudy
Mostly cloudy
 Wind from WSW
Wind: WSW 8 mph , 13 km/h
Temperature: 46°F , 8°C
Wind Chill: 42°F , 6°C
Dew Point: 30°F , -1°C
Humidity: 53%
Barometer: 29.85 inHg , 1010.8 hPa
Clouds: Mostly cloudy
Visibility: 10 miles , 16 km
Cloud details: Mostly cloudy 9000 ft
2024/02/24 11:50 KRYY 241150Z 25007KT 10SM BKN090 08/M01 A2985 RMK AO2 SLP105 T00781006 10106 20033 53002 $
KVPC - Cartersville, Georgia, USA
Distance from station: WSW 22mi, 35km
Updated: Sat, 24-Feb-2024 7:15am EST
Overcast
Overcast
 Wind from W
Wind: W 5 mph , 7 km/h
Temperature: 41°F , 5°C
Wind Chill: 38°F , 3°C
Dew Point: 32°F , 0°C
Humidity: 70%
Barometer: 29.86 inHg , 1011.2 hPa
Clouds: Overcast
Visibility: 10 miles , 16 km
Cloud details: Overcast 9500 ft
2024/02/24 12:15 KVPC 241215Z AUTO 28004KT 10SM OVC095 05/M00 A2986 RMK AO2
 
KMGE - Dobbins Afb/Mari, Georgia, USA
Distance from station: S 24mi, 39km
Updated: Sat, 24-Feb-2024 6:55am EST
Partly cloudy
Partly cloudy
 Wind from WSW
Wind: WSW 7 mph , 11 km/h
Temperature: 45°F , 7°C
Wind Chill: 41°F , 5°C
Dew Point: 30°F , -1°C
Humidity: 57%
Barometer: 29.83 inHg , 1010.2 hPa
Clouds: Partly cloudy
Visibility: 10 miles , 16 km
Cloud details: Partly cloudy 9000 ft
2024/02/24 11:55 KMGE 241155Z AUTO 25006KT 10SM SCT090 07/M01 A2983 RMK AO2 SLP103 T00701009 10106 20049 53003
KPDK - Peachtree/Dekalb, Georgia, USA
Distance from station: SSE 29mi, 47km
Updated: Sat, 24-Feb-2024 6:53am EST
Partly cloudy
Partly cloudy
 Wind from SW
Wind: SW 5 mph , 7 km/h
Temperature: 39°F , 4°C
Wind Chill: 35°F , 2°C
Dew Point: 30°F , -1°C
Humidity: 70%
Barometer: 29.84 inHg , 1010.5 hPa
Clouds: Partly cloudy
Visibility: 10 miles , 16 km
Cloud details: Partly cloudy 9000 ft
2024/02/24 11:53 KPDK 241153Z AUTO 23004KT 10SM SCT090 04/M01 A2984 RMK AO2 SLP109 T00441011 10106 20039 53003
KFTY - Atlanta/Fulton, Georgia, USA
Distance from station: S 34mi, 54km
Updated: Sat, 24-Feb-2024 6:53am EST
Few Clouds
Few Clouds
 Wind from SW
Wind: SW 5 mph , 7 km/h
Temperature: 43°F , 6°C
Wind Chill: 40°F , 4°C
Dew Point: 30°F , -1°C
Humidity: 61%
Barometer: 29.85 inHg , 1010.8 hPa
Clouds: Few Clouds
Visibility: 10 miles , 16 km
Cloud details: Few Clouds 9000 ft
2024/02/24 11:53 KFTY 241153Z 23004KT 10SM FEW090 06/M01 A2985 RMK AO2 SLP107 70001 T00611011 10111 20044 53004
 
KPUJ - Atlanta/Paulding, Georgia, USA
Distance from station: SW 34mi, 55km
Updated: Sat, 24-Feb-2024 7:15am EST
Partly cloudy
Partly cloudy
 Wind from W
Wind: W 7 mph , 11 km/h
Temperature: 43°F , 6°C
Wind Chill: 39°F , 4°C
Dew Point: 30°F , -1°C
Humidity: 61%
Barometer: 29.85 inHg , 1010.8 hPa
Clouds: Partly cloudy
Visibility: 10 miles , 16 km
Cloud details: Partly cloudy 8500 ft
2024/02/24 12:15 KPUJ 241215Z AUTO 28006KT 10SM SCT085 06/M01 A2985 RMK AO2
KDNN - Dalton, Georgia, USA
Distance from station: NW 37mi, 59km
Updated: Sat, 24-Feb-2024 7:15am EST
Few Clouds
Few Clouds
 Wind from calm
Wind: Calm
Temperature: 36°F , 2°C
Dew Point: 34°F , 1°C
Humidity: 93%
Barometer: 29.84 inHg , 1010.5 hPa
Clouds: Few Clouds
Visibility: 10 miles , 16 km
Cloud details: Few Clouds 15000 ft
2024/02/24 12:15 KDNN 241215Z AUTO 00000KT 10SM FEW150 02/01 A2984 RMK AO2 T00250013
KLZU - Lawrenceville, Georgia, USA
Distance from station: ESE 37mi, 59km
Updated: Sat, 24-Feb-2024 6:56am EST
Clear
Clear
 Wind from W
Wind: W 3 mph , 6 km/h
Temperature: 43°F , 6°C
Dew Point: 28°F , -2°C
Humidity: 57%
Barometer: 29.83 inHg , 1010.2 hPa
Clouds: Clear
Visibility: 10 miles , 16 km
2024/02/24 11:56 KLZU 241156Z 26003KT 10SM CLR 06/M02 A2983 RMK AO2 SLP112 T00561017 10106 20044 53002
 
KRMG - Rome, Georgia, USA
Distance from station: W 38mi, 61km
Updated: Sat, 24-Feb-2024 6:53am EST
Mostly cloudy
Mostly cloudy
 Wind from calm
Wind: Calm
Temperature: 37°F , 3°C
Dew Point: 32°F , 0°C
Humidity: 81%
Barometer: 29.84 inHg , 1010.5 hPa
Clouds: Mostly cloudy
Visibility: 10 miles , 16 km
Cloud details: Mostly cloudy 9500 ft
2024/02/24 11:53 KRMG 241153Z AUTO 00000KT 10SM BKN095 03/00 A2984 RMK AO2 SLP103 70001 T00330000 10094 20028 53006
KGVL - Gainesville, Georgia, USA
Distance from station: E 39mi, 62km
Updated: Sat, 24-Feb-2024 6:53am EST
Clear
Clear
 Wind from WSW
Wind: WSW 6 mph , 9 km/h
Temperature: 41°F , 5°C
Wind Chill: 37°F , 3°C
Dew Point: 28°F , -2°C
Humidity: 61%
Barometer: 29.82 inHg , 1009.8 hPa
Clouds: Clear
Visibility: 10 miles , 16 km
2024/02/24 11:53 KGVL 241153Z AUTO 25005KT 10SM CLR 05/M02 A2982 RMK AO2 SLP096 T00501017 10100 20050 53002
KATL - Atlanta, Georgia, USA
Distance from station: S 44mi, 71km
Updated: Sat, 24-Feb-2024 6:52am EST
Few Clouds
Few Clouds
 Wind from WSW
Wind: WSW 8 mph , 13 km/h
Temperature: 46°F , 8°C
Wind Chill: 42°F , 6°C
Dew Point: 30°F , -1°C
Humidity: 53%
Barometer: 29.85 inHg , 1010.8 hPa
Clouds: Few Clouds
Visibility: 10 miles , 16 km
Cloud details: Few Clouds 9000 ft
2024/02/24 11:52 KATL 241152Z 24007KT 10SM FEW090 08/M01 A2985 RMK AO2 SLP107 T00781011 10111 20072 53003 $